Ride Results

Kirkcaldy Park (17-06-2017)
Ride distance: 80.0 km

Outcomes - Kirkcaldy Park (17-06-2017)
Division No. of Entries Retired / DNE Completed Withdrawn Ineligible V/O Percentage Completed
HW 8 - 7 1 - - 87.50%
MW 12 - 10 1 - 1 83.33%
LW 8 - 8 - - - 100.00%
JN 1 - 1 - - - 100.00%
Totals 29 - 26 2 - 1 89.66%
Results - Kirkcaldy Park (17-06-2017)
No. Rider Horse Place Time Leg Speeds Total
Km/Hr
H/R bpm
Heavyweight
113 Rachael Barnett Shady 1 7:42:00 10.9, 9.9 10.39 32, 44, 49 (Avg:46)
268 Lainie Ray Diamond R Turbo 2 7:56:00 10.7, 9.4 10.08 35, 44, 52 (Avg:48)
150 Jody Smith Tarjo Ace of Hearts 2 7:56:00 10.7, 9.4 10.08 32, 41, 44 (Avg:42)
38 Paula Van Eck Pyrenees Impala 4 (BC) 8:11:00 10.3, 9.2 9.78 27, 31, 35 (Avg:33)
79 Andrew White Sweet Honesty Maazar 5 8:16:00 10.3, 9.0 9.68 40, 55, 54 (Avg:54)
78 Tania Drever Castlebar Ego 6 8:35:00 9.3, 9.3 9.32 32, 45, 49 (Avg:47)
290 Stephanie Cooper Allanooka Shadene 7 8:49:00 9.0, 9.0 9.07 34, 46, 49 (Avg:47)
188 Steve Ellis Playing With Fire Withdrawn L2 0:00:00 - - 37, 44, 48 (Avg:46)
Middleweight
70 Jil Bourton Veloce Finale 1 6:56:00 11.5, 11.4 11.54 35, 44, 54 (Avg:49)
232 Jodie Luck Lindall Alabaska 2 (BC) 7:07:00 11.5, 10.9 11.24 30, 40, 46 (Avg:43)
2081 Dani Oniszk Elysian Diamond Spirit 3 7:42:00 10.9, 9.9 10.39 32, 40, 49 (Avg:44)
8280 Mary Chirgwin Tunamara Sa'aran 4 8:11:00 10.6, 9.0 9.78 51, 54, 56 (Avg:55)
155 Karen Alderton Brookdale Park Violet Sky 5 8:15:00 10.3, 9.1 9.70 29, 37, 43 (Avg:40)
245 Melissa Bright Meldana Kadeem 6 8:30:00 9.7, 9.0 9.41 32, 40, 55 (Avg:47)
300 Emma Kirby Springfield Park Stellah 6 8:30:00 10.4, 8.5 9.41 36, 41, 44 (Avg:42)
97 Tracy Brandon Hazeldean Fayid 8 8:34:00 9.0, 9.6 9.34 31, 44, 48 (Avg:46)
8283 Naomi Leavesley Tommi Gunn 8 8:34:00 9.0, 9.6 9.34 35, 44, 50 (Avg:47)
296 Wendy Grundy Kalody Park Shayesha 10 8:49:00 9.0, 9.0 9.07 33, 40, 52 (Avg:46)
109 Samayne Uren Ah'Kem Hussaar Withdrawn L1 0:00:00 - - 40, 50 (Avg:50)
37 Kimberley Van Eck Zayed All Klass Lame L1 0:00:00 10.1 - 36, 46 (Avg:46)
Lightweight
255 Alannah Luck West Coast Asher 1 (BC) 7:07:00 11.5, 10.9 11.24 30, 40, 44 (Avg:42)
168 Jessica Aistrope Castlebar Savannah 2 8:07:00 10.2, 9.4 9.86 34, 44, 46 (Avg:45)
71 Miki Bell Aqaba Signette 2 8:07:00 8.1, 12.4 9.86 30, 48, 53 (Avg:50)
261 Kelsey Bright Kirrani's Semillon Fire 4 8:10:00 9.7, 9.8 9.80 33, 40, 47 (Avg:43)
235 Rebekah French-Davis Castlebar Dante 4 8:10:00 9.8, 9.7 9.80 32, 42, 44 (Avg:43)
25050 Nicki Samson-Ward Talunga Park Azraff 6 8:35:00 9.3, 9.3 9.32 33, 44, 48 (Avg:46)
301 Karren Carman Dyarah Park Gold Digger 7 8:49:00 9.0, 9.0 9.07 33, 39, 48 (Avg:43)
288 Fiona Shearman Tom-May Mel-Bar Prince 8 9:07:00 9.8, 7.9 8.78 31, 40, 44 (Avg:42)
Junior
81 Monique Raidis Meldana Kesi 1 (BC) 8:30:00 9.7, 9.0 9.41 44, 45, 53 (Avg:49)